createdAt,value
2023-05-05T00:00:39.996Z,967.6954
2023-05-05T00:01:42.582Z,967.6838
2023-05-05T00:02:45.289Z,967.6692
2023-05-05T00:03:47.955Z,967.6584
2023-05-05T00:04:50.440Z,967.6439
2023-05-05T00:05:53.019Z,967.6308
2023-05-05T00:06:55.620Z,967.6046
2023-05-05T00:07:58.224Z,967.5785
2023-05-05T00:09:00.845Z,967.5377
2023-05-05T00:10:03.435Z,967.5292
2023-05-05T00:11:06.045Z,967.5062
2023-05-05T00:12:08.632Z,967.5023
2023-05-05T00:13:11.387Z,967.4946
2023-05-05T00:14:13.857Z,967.4938
2023-05-05T00:15:16.464Z,967.4708
2023-05-05T00:16:19.040Z,967.4684
2023-05-05T00:17:21.695Z,967.4861
2023-05-05T00:18:24.256Z,967.4923
2023-05-05T00:19:26.881Z,967.4777
2023-05-05T00:20:29.557Z,967.4800
2023-05-05T00:21:32.094Z,967.4808
2023-05-05T00:22:34.679Z,967.4915
2023-05-05T00:23:37.308Z,967.5200
2023-05-05T00:24:39.900Z,967.5477
2023-05-05T00:25:42.531Z,967.5608
2023-05-05T00:26:45.107Z,967.5562
2023-05-05T00:27:47.739Z,967.5485
2023-05-05T00:28:50.341Z,967.5492
2023-05-05T00:29:52.946Z,967.5354
2023-05-05T00:30:55.533Z,967.5431
2023-05-05T00:31:58.179Z,967.5585
2023-05-05T00:33:00.778Z,967.5785
2023-05-05T00:34:03.369Z,967.5954
2023-05-05T00:35:05.942Z,967.5946
2023-05-05T00:36:08.580Z,967.5823
2023-05-05T00:37:11.167Z,967.5762
2023-05-05T00:38:13.791Z,967.5592
2023-05-05T00:39:16.359Z,967.5515
2023-05-05T00:40:18.989Z,967.5554
2023-05-05T00:41:21.619Z,967.5554
2023-05-05T00:42:24.189Z,967.5461
2023-05-05T00:43:26.771Z,967.5416
2023-05-05T00:44:29.406Z,967.5485
2023-05-05T00:45:31.984Z,967.5562
2023-05-05T00:46:34.616Z,967.5662
2023-05-05T00:47:37.240Z,967.5630
2023-05-05T00:48:39.803Z,967.5515
2023-05-05T00:49:42.377Z,967.5477
2023-05-05T00:50:45.027Z,967.5385
2023-05-05T00:51:47.592Z,967.5339
2023-05-05T00:52:50.219Z,967.5092
2023-05-05T00:53:52.800Z,967.4815
2023-05-05T00:54:55.437Z,967.4900
2023-05-05T00:55:58.001Z,967.5092
2023-05-05T00:57:00.632Z,967.5200
2023-05-05T00:58:03.219Z,967.5469
2023-05-05T00:59:05.843Z,967.5708
2023-05-05T01:00:08.790Z,967.5615
2023-05-05T01:01:11.168Z,967.5446
2023-05-05T01:02:13.618Z,967.5500
2023-05-05T01:03:16.303Z,967.5438
2023-05-05T01:04:18.825Z,967.5392
2023-05-05T01:05:21.438Z,967.5423
2023-05-05T01:06:24.026Z,967.5038
2023-05-05T01:07:26.661Z,967.4823
2023-05-05T01:08:29.243Z,967.4746
2023-05-05T01:09:31.859Z,967.4761
2023-05-05T01:10:34.429Z,967.4708
2023-05-05T01:11:37.047Z,967.4700
2023-05-05T01:12:39.650Z,967.4715
2023-05-05T01:13:42.254Z,967.4792
2023-05-05T01:14:44.826Z,967.4815
2023-05-05T01:15:47.470Z,967.4753
2023-05-05T01:16:50.035Z,967.4608
2023-05-05T01:17:52.751Z,967.4477
2023-05-05T01:18:55.263Z,967.4362
2023-05-05T01:19:57.865Z,967.4400
2023-05-05T01:21:00.481Z,967.4415
2023-05-05T01:22:03.067Z,967.4462
2023-05-05T01:23:05.659Z,967.4539
2023-05-05T01:24:08.313Z,967.4584
2023-05-05T01:25:10.867Z,967.4892
2023-05-05T01:26:14.276Z,967.5446
2023-05-05T01:27:16.073Z,967.5600
2023-05-05T01:28:18.693Z,967.5431
2023-05-05T01:29:21.312Z,967.5015
2023-05-05T01:30:23.907Z,967.4969
2023-05-05T01:31:26.507Z,967.4946
2023-05-05T01:32:29.213Z,967.4923
2023-05-05T01:33:31.678Z,967.5085
2023-05-05T01:34:34.320Z,967.5092
2023-05-05T01:35:36.880Z,967.5023
2023-05-05T01:36:39.519Z,967.5023
2023-05-05T01:37:42.095Z,967.4992
2023-05-05T01:38:44.717Z,967.5000
2023-05-05T01:39:47.305Z,967.5177
2023-05-05T01:40:49.950Z,967.5361
2023-05-05T01:41:52.508Z,967.5400
2023-05-05T01:42:55.130Z,967.5254
2023-05-05T01:45:31.978Z,967.4742
2023-05-05T01:46:34.520Z,967.4746
2023-05-05T01:47:37.168Z,967.4823
2023-05-05T01:48:41.761Z,967.4792
2023-05-05T01:49:42.351Z,967.4523
2023-05-05T01:50:44.932Z,967.4200
2023-05-05T01:51:47.850Z,967.4153
2023-05-05T01:52:50.169Z,967.4100
2023-05-05T01:53:52.767Z,967.4292
2023-05-05T01:54:55.358Z,967.4230
2023-05-05T01:55:57.993Z,967.4330
2023-05-05T01:57:00.568Z,967.4470
2023-05-05T01:58:03.289Z,967.4423
2023-05-05T01:59:05.752Z,967.4330
2023-05-05T02:00:08.657Z,967.4415
2023-05-05T02:01:11.091Z,967.4470
2023-05-05T02:02:13.617Z,967.4400
2023-05-05T02:03:16.345Z,967.4123
2023-05-05T02:04:18.801Z,967.3762
2023-05-05T02:05:21.385Z,967.4023
2023-05-05T02:06:24.011Z,967.4423
2023-05-05T02:07:26.594Z,967.4708
2023-05-05T02:08:29.223Z,967.5038
2023-05-05T02:09:31.798Z,967.5239
2023-05-05T02:10:34.437Z,967.5023
2023-05-05T02:11:37.016Z,967.4885
2023-05-05T02:12:39.696Z,967.4892
2023-05-05T02:13:42.277Z,967.4977
2023-05-05T02:14:44.867Z,967.5339
2023-05-05T02:15:47.433Z,967.5485
2023-05-05T02:16:50.052Z,967.5662
2023-05-05T02:17:52.676Z,967.5554
2023-05-05T02:18:55.256Z,967.5477
2023-05-05T02:19:57.833Z,967.5361
2023-05-05T02:21:00.561Z,967.5223
2023-05-05T02:23:42.086Z,967.5243
2023-05-05T02:24:44.674Z,967.5400
2023-05-05T02:25:47.302Z,967.5654
2023-05-05T02:26:49.891Z,967.5562
2023-05-05T02:27:52.524Z,967.5508
2023-05-05T02:28:55.104Z,967.5377
2023-05-05T02:29:57.859Z,967.5247
2023-05-05T02:31:00.350Z,967.5223
2023-05-05T02:32:02.944Z,967.4869
2023-05-05T02:33:05.602Z,967.4769
2023-05-05T02:34:08.132Z,967.4915
2023-05-05T02:35:10.709Z,967.5131
2023-05-05T02:36:13.550Z,967.5262
2023-05-05T02:37:15.920Z,967.5200
2023-05-05T02:38:18.542Z,967.5377
2023-05-05T02:39:21.130Z,967.5323
2023-05-05T02:40:23.751Z,967.5115
2023-05-05T02:41:26.324Z,967.5015
2023-05-05T02:42:28.959Z,967.4708
2023-05-05T02:43:31.565Z,967.4738
2023-05-05T02:44:34.178Z,967.4515
2023-05-05T02:45:36.749Z,967.4500
2023-05-05T02:46:39.403Z,967.4523
2023-05-05T02:47:41.986Z,967.4554
2023-05-05T02:50:04.355Z,967.4543
2023-05-05T02:51:06.924Z,967.4785
2023-05-05T02:52:09.563Z,967.4815
2023-05-05T02:53:12.242Z,967.4615
2023-05-05T02:54:14.796Z,967.4338
2023-05-05T02:57:10.864Z,967.4521
2023-05-05T02:58:13.437Z,967.4584
2023-05-05T02:59:16.428Z,967.4592
2023-05-05T03:00:18.651Z,967.4438
2023-05-05T03:01:21.317Z,967.4169
2023-05-05T03:02:23.905Z,967.3931
2023-05-05T03:03:26.510Z,967.3738
2023-05-05T03:04:29.095Z,967.3808
2023-05-05T03:05:31.674Z,967.3754
2023-05-05T03:06:34.308Z,967.3669
2023-05-05T03:07:36.888Z,967.3454
2023-05-05T03:08:39.500Z,967.3347
2023-05-05T03:09:42.086Z,967.3446
2023-05-05T03:10:44.718Z,967.3631
2023-05-05T03:11:47.298Z,967.3746
2023-05-05T03:12:49.933Z,967.3538
2023-05-05T03:13:52.495Z,967.3270
2023-05-05T03:14:55.161Z,967.3185
2023-05-05T03:15:57.734Z,967.3100
2023-05-05T03:17:00.319Z,967.2953
2023-05-05T03:18:02.987Z,967.2877
2023-05-05T03:19:05.520Z,967.2992
2023-05-05T03:20:08.353Z,967.3077
2023-05-05T03:21:10.706Z,967.3023
2023-05-05T03:24:06.764Z,967.2714
2023-05-05T03:25:09.396Z,967.2700
2023-05-05T03:26:12.000Z,967.2823
2023-05-05T03:27:14.606Z,967.3115
2023-05-05T03:28:17.192Z,967.3200
2023-05-05T03:29:19.830Z,967.3339
2023-05-05T03:30:22.404Z,967.3339
2023-05-05T03:31:25.047Z,967.3231
2023-05-05T03:32:27.622Z,967.3123
2023-05-05T03:33:30.235Z,967.2961
2023-05-05T03:34:32.819Z,967.2723
2023-05-05T03:35:35.442Z,967.2723
2023-05-05T03:36:38.037Z,967.2646
2023-05-05T03:37:40.658Z,967.2623
2023-05-05T03:38:43.220Z,967.2538
2023-05-05T03:39:45.853Z,967.2454
2023-05-05T03:40:48.430Z,967.2469
2023-05-05T03:41:51.061Z,967.2538
2023-05-05T03:42:53.680Z,967.2562
2023-05-05T03:43:56.280Z,967.2692
2023-05-05T03:44:58.854Z,967.2747
2023-05-05T03:46:01.510Z,967.2777
2023-05-05T03:47:04.049Z,967.2777
2023-05-05T03:48:06.738Z,967.2700
2023-05-05T03:49:09.269Z,967.2677
2023-05-05T03:50:11.896Z,967.2608
2023-05-05T03:51:14.467Z,967.2570
2023-05-05T03:52:17.087Z,967.2438
2023-05-05T03:53:19.667Z,967.2477
2023-05-05T03:54:22.309Z,967.2554
2023-05-05T03:55:24.893Z,967.2592
2023-05-05T03:56:27.507Z,967.2554
2023-05-05T03:57:30.077Z,967.2546
2023-05-05T03:58:32.725Z,967.2585
2023-05-05T04:00:45.446Z,967.2700
2023-05-05T04:01:48.017Z,967.2816
2023-05-05T04:02:50.730Z,967.2977
2023-05-05T04:03:53.321Z,967.3038
2023-05-05T04:04:55.926Z,967.3108
2023-05-05T04:05:58.450Z,967.3077
2023-05-05T04:07:01.070Z,967.3023
2023-05-05T04:08:03.662Z,967.2839
2023-05-05T04:10:40.467Z,967.2550
2023-05-05T04:11:43.247Z,967.2315
2023-05-05T04:12:45.692Z,967.2331
2023-05-05T04:13:48.322Z,967.2377
2023-05-05T04:14:50.898Z,967.2477
2023-05-05T04:15:53.574Z,967.2500
2023-05-05T04:16:56.111Z,967.2546
2023-05-05T04:17:58.819Z,967.2577
2023-05-05T04:19:01.329Z,967.2554
2023-05-05T04:20:03.946Z,967.2623
2023-05-05T04:21:06.563Z,967.2585
2023-05-05T04:22:09.212Z,967.2454
2023-05-05T04:23:11.736Z,967.2446
2023-05-05T04:24:14.362Z,967.2500
2023-05-05T04:25:16.945Z,967.2662
2023-05-05T04:26:19.578Z,967.2823
2023-05-05T04:27:22.141Z,967.2861
2023-05-05T04:28:24.784Z,967.2792
2023-05-05T04:29:27.365Z,967.2777
2023-05-05T04:30:29.986Z,967.2846
2023-05-05T04:31:32.610Z,967.3046
2023-05-05T04:32:35.287Z,967.3146
2023-05-05T04:33:37.789Z,967.3292
2023-05-05T04:34:40.412Z,967.3307
2023-05-05T04:35:42.985Z,967.3208
2023-05-05T04:36:45.711Z,967.3092
2023-05-05T04:37:48.190Z,967.3170
2023-05-05T04:38:50.864Z,967.3215
2023-05-05T04:39:53.412Z,967.3192
2023-05-05T04:40:56.028Z,967.3185
2023-05-05T04:41:58.602Z,967.3054
2023-05-05T04:43:01.241Z,967.3239
2023-05-05T04:44:03.805Z,967.3277
2023-05-05T04:45:06.833Z,967.3347
2023-05-05T04:46:09.058Z,967.3523
2023-05-05T04:47:13.261Z,967.3700
2023-05-05T04:48:14.549Z,967.3892
2023-05-05T04:49:16.849Z,967.4061
2023-05-05T04:50:19.425Z,967.4200
2023-05-05T04:51:22.054Z,967.4330
2023-05-05T04:54:08.472Z,967.4557
2023-05-05T04:55:11.056Z,967.4661
2023-05-05T04:56:13.673Z,967.4854
2023-05-05T04:57:16.264Z,967.5139
2023-05-05T04:58:18.892Z,967.5408
2023-05-05T04:59:21.493Z,967.5562
2023-05-05T05:00:24.112Z,967.5646
2023-05-05T05:01:26.720Z,967.5808
2023-05-05T05:02:29.361Z,967.5954
2023-05-05T05:03:32.070Z,967.6085
2023-05-05T05:04:34.512Z,967.6108
2023-05-05T05:05:37.207Z,967.5984
2023-05-05T05:06:39.701Z,967.6077
2023-05-05T05:07:42.274Z,967.6354
2023-05-05T05:08:44.892Z,967.6561
2023-05-05T05:09:47.480Z,967.6608
2023-05-05T05:10:50.093Z,967.6700
2023-05-05T05:11:52.711Z,967.6723
2023-05-05T05:12:55.358Z,967.6700
2023-05-05T05:13:57.875Z,967.6638
2023-05-05T05:15:00.517Z,967.6531
2023-05-05T05:16:03.091Z,967.6539
2023-05-05T05:17:05.694Z,967.6400
2023-05-05T05:18:08.325Z,967.6346
2023-05-05T05:19:10.896Z,967.6262
2023-05-05T05:20:13.473Z,967.6061
2023-05-05T05:21:16.358Z,967.6015
2023-05-05T05:22:18.679Z,967.6061
2023-05-05T05:23:21.302Z,967.6123
2023-05-05T05:24:23.864Z,967.6230
2023-05-05T05:25:26.493Z,967.6370
2023-05-05T05:26:29.068Z,967.6469
2023-05-05T05:27:31.717Z,967.6631
2023-05-05T05:28:34.333Z,967.6615
2023-05-05T05:29:36.900Z,967.6608
2023-05-05T05:30:39.490Z,967.6569
2023-05-05T05:31:42.169Z,967.6569
2023-05-05T05:32:44.710Z,967.6569
2023-05-05T05:33:47.297Z,967.6661
2023-05-05T05:34:49.868Z,967.6885
2023-05-05T05:35:52.775Z,967.7177
2023-05-05T05:36:55.091Z,967.7277
2023-05-05T05:37:57.699Z,967.7300
2023-05-05T05:39:00.265Z,967.7300
2023-05-05T05:40:02.897Z,967.7361
2023-05-05T05:41:05.463Z,967.7430
2023-05-05T05:42:08.071Z,967.7315
2023-05-05T05:43:10.655Z,967.7292
2023-05-05T05:44:13.292Z,967.7631
2023-05-05T05:45:16.166Z,967.7777
2023-05-05T05:46:18.486Z,967.7823
2023-05-05T05:47:21.035Z,967.7854
2023-05-05T05:48:23.675Z,967.7639
2023-05-05T05:49:26.248Z,967.7531
2023-05-05T05:50:28.870Z,967.7423
2023-05-05T05:51:31.446Z,967.7415
2023-05-05T05:52:34.055Z,967.7215
2023-05-05T05:53:36.649Z,967.7184
2023-05-05T05:54:39.253Z,967.7285
2023-05-05T05:55:41.880Z,967.7392
2023-05-05T05:56:44.460Z,967.7538
2023-05-05T05:57:47.023Z,967.7692
2023-05-05T05:59:54.890Z,967.7672
2023-05-05T06:00:57.508Z,967.7861
2023-05-05T06:02:00.123Z,967.7923
2023-05-05T06:03:02.813Z,967.7931
2023-05-05T06:04:05.341Z,967.8008
2023-05-05T06:05:07.922Z,967.7885
2023-05-05T06:06:10.479Z,967.7869
2023-05-05T06:07:13.100Z,967.7670
2023-05-05T06:08:15.975Z,967.7585
2023-05-05T06:09:18.322Z,967.7508
2023-05-05T06:10:27.981Z,967.7415
2023-05-05T06:11:23.515Z,967.7385
2023-05-05T06:12:26.088Z,967.7508
2023-05-05T06:13:28.721Z,967.7546
2023-05-05T06:14:31.274Z,967.7700
2023-05-05T06:15:33.916Z,967.7938
2023-05-05T06:16:36.478Z,967.8192
2023-05-05T06:17:39.127Z,967.8315
2023-05-05T06:18:41.704Z,967.8416
2023-05-05T06:19:44.295Z,967.8454
2023-05-05T06:20:46.857Z,967.8446
2023-05-05T06:21:49.479Z,967.8439
2023-05-05T06:22:52.085Z,967.8331
2023-05-05T06:23:54.699Z,967.8231
2023-05-05T06:24:57.250Z,967.8170
2023-05-05T06:25:59.867Z,967.8170
2023-05-05T06:27:02.446Z,967.8138
2023-05-05T06:28:05.128Z,967.7969
2023-05-05T06:29:07.621Z,967.7900
2023-05-05T06:30:10.502Z,967.7885
2023-05-05T06:31:12.877Z,967.7715
2023-05-05T06:32:15.438Z,967.7515
2023-05-05T06:33:18.013Z,967.7423
2023-05-05T06:34:20.628Z,967.7531
2023-05-05T06:35:23.203Z,967.7670
2023-05-05T06:36:25.876Z,967.7654
2023-05-05T06:37:28.372Z,967.7754
2023-05-05T06:38:30.989Z,967.7769
2023-05-05T06:39:33.554Z,967.7785
2023-05-05T06:40:36.175Z,967.7823
2023-05-05T06:41:38.782Z,967.7969
2023-05-05T06:42:41.370Z,967.7946
2023-05-05T06:43:43.950Z,967.8038
2023-05-05T06:44:46.545Z,967.8085
2023-05-05T06:45:49.350Z,967.8054
2023-05-05T06:46:51.773Z,967.7992
2023-05-05T06:47:54.328Z,967.7938
2023-05-05T06:48:56.905Z,967.7953
2023-05-05T06:49:59.474Z,967.8069
2023-05-05T06:51:02.927Z,967.8038
2023-05-05T06:52:04.661Z,967.8054
2023-05-05T06:53:07.293Z,967.8069
2023-05-05T06:54:09.841Z,967.8008
2023-05-05T06:55:12.479Z,967.8130
2023-05-05T06:56:15.017Z,967.7946
2023-05-05T06:57:17.641Z,967.7892
2023-05-05T06:58:20.209Z,967.7992
2023-05-05T06:59:23.109Z,967.8023
2023-05-05T07:00:25.389Z,967.7854
2023-05-05T07:01:28.067Z,967.7854
2023-05-05T07:02:30.574Z,967.7723
2023-05-05T07:03:33.190Z,967.7570
2023-05-05T07:04:35.741Z,967.7438
2023-05-05T07:05:38.365Z,967.7454
2023-05-05T07:06:40.931Z,967.7408
2023-05-05T07:07:43.532Z,967.7438
2023-05-05T07:08:46.100Z,967.7469
2023-05-05T07:09:48.706Z,967.7477
2023-05-05T07:10:51.281Z,967.7631
2023-05-05T07:11:53.887Z,967.7670
2023-05-05T07:12:56.601Z,967.7708
2023-05-05T07:13:59.071Z,967.7792
2023-05-05T07:15:09.304Z,967.7762
2023-05-05T07:16:04.299Z,967.7646
2023-05-05T07:17:06.802Z,967.7446
2023-05-05T07:18:09.914Z,967.7430
2023-05-05T07:19:11.990Z,967.7354
2023-05-05T07:20:14.602Z,967.7277
2023-05-05T07:21:17.175Z,967.7200
2023-05-05T07:22:19.813Z,967.7039
2023-05-05T07:23:22.334Z,967.7000
2023-05-05T07:24:24.952Z,967.6962
2023-05-05T07:25:27.515Z,967.6846
2023-05-05T07:26:30.150Z,967.6885
2023-05-05T07:27:32.703Z,967.6592
2023-05-05T07:28:35.322Z,967.6577
2023-05-05T07:29:37.878Z,967.6631
2023-05-05T07:30:40.498Z,967.6669
2023-05-05T07:31:43.087Z,967.6777
2023-05-05T07:32:45.720Z,967.6616
2023-05-05T07:33:48.213Z,967.6754
2023-05-05T07:34:50.844Z,967.6730
2023-05-05T07:35:53.400Z,967.6653
2023-05-05T07:36:56.003Z,967.6523
2023-05-05T07:37:58.568Z,967.6400
2023-05-05T07:39:01.177Z,967.6370
2023-05-05T07:40:03.746Z,967.6077
2023-05-05T07:41:06.362Z,967.5984
2023-05-05T07:42:08.909Z,967.5939
2023-05-05T07:43:11.518Z,967.6008
2023-05-05T07:44:14.090Z,967.6100
2023-05-05T07:45:17.193Z,967.6185
2023-05-05T07:46:19.402Z,967.6223
2023-05-05T07:47:22.028Z,967.6185
2023-05-05T07:48:24.436Z,967.6123
2023-05-05T07:49:27.033Z,967.6154
2023-05-05T07:50:29.893Z,967.6208
2023-05-05T07:51:33.953Z,967.6161
2023-05-05T07:52:46.630Z,967.6123
2023-05-05T07:53:37.392Z,967.6154
2023-05-05T07:54:39.950Z,967.6215
2023-05-05T07:55:42.553Z,967.6230
2023-05-05T07:56:45.117Z,967.6277
2023-05-05T07:59:41.018Z,967.6250
2023-05-05T08:00:43.632Z,967.6115
2023-05-05T08:01:46.277Z,967.6000
2023-05-05T08:02:48.900Z,967.5885
2023-05-05T08:03:51.469Z,967.5785
2023-05-05T08:04:53.992Z,967.5754
2023-05-05T08:05:56.556Z,967.5692
2023-05-05T08:06:59.167Z,967.5662
2023-05-05T08:09:02.339Z,967.5729
2023-05-05T08:10:04.929Z,967.5638
2023-05-05T08:11:07.515Z,967.5485
2023-05-05T08:12:10.088Z,967.5308
2023-05-05T08:13:12.819Z,967.5223
2023-05-05T08:14:15.284Z,967.5023
2023-05-05T08:15:17.882Z,967.4838
2023-05-05T08:16:20.537Z,967.4723
2023-05-05T08:17:23.205Z,967.4716
2023-05-05T08:18:25.629Z,967.4400
2023-05-05T08:19:29.491Z,967.4246
2023-05-05T08:20:30.820Z,967.4108
2023-05-05T08:21:33.440Z,967.4138
2023-05-05T08:22:35.982Z,967.4108
2023-05-05T08:23:38.600Z,967.4023
2023-05-05T08:24:41.159Z,967.4069
2023-05-05T08:25:43.797Z,967.4000
2023-05-05T08:26:46.365Z,967.3800
2023-05-05T08:27:48.943Z,967.3815
2023-05-05T08:28:51.505Z,967.3992
2023-05-05T08:29:54.119Z,967.4023
2023-05-05T08:30:56.673Z,967.3970
2023-05-05T08:31:59.326Z,967.3947
2023-05-05T08:33:02.094Z,967.4061
2023-05-05T08:34:04.474Z,967.4023
2023-05-05T08:35:07.705Z,967.4031
2023-05-05T08:36:09.642Z,967.4084
2023-05-05T08:37:12.219Z,967.3962
2023-05-05T08:38:14.814Z,967.3762
2023-05-05T08:39:17.583Z,967.3508
2023-05-05T08:40:19.983Z,967.3354
2023-05-05T08:41:22.559Z,967.3177
2023-05-05T08:42:36.374Z,967.3038
2023-05-05T08:43:27.710Z,967.2946
2023-05-05T08:44:30.361Z,967.2685
2023-05-05T08:46:38.068Z,967.2464
2023-05-05T08:47:40.686Z,967.2492
2023-05-05T08:48:43.282Z,967.2462
2023-05-05T08:49:45.812Z,967.2585
2023-05-05T08:50:48.415Z,967.2385
2023-05-05T08:51:50.959Z,967.2238
2023-05-05T08:52:53.622Z,967.1931
2023-05-05T08:53:56.152Z,967.1730
2023-05-05T08:54:58.733Z,967.1600
2023-05-05T08:56:01.299Z,967.1447
2023-05-05T08:57:03.932Z,967.1369
2023-05-05T08:58:06.482Z,967.1308
2023-05-05T08:59:09.092Z,967.1177
2023-05-05T09:00:11.647Z,967.1092
2023-05-05T09:01:14.607Z,967.0969
2023-05-05T09:02:16.910Z,967.0754
2023-05-05T09:03:19.482Z,967.0839
2023-05-05T09:04:22.089Z,967.0746
2023-05-05T09:05:24.620Z,967.0577
2023-05-05T09:06:27.171Z,967.0585
2023-05-05T09:07:29.789Z,967.0508
2023-05-05T09:08:32.360Z,967.0262
2023-05-05T09:09:34.962Z,967.0070
2023-05-05T09:10:37.526Z,966.9930
2023-05-05T09:11:40.123Z,966.9830
2023-05-05T09:12:42.731Z,966.9815
2023-05-05T09:13:45.284Z,966.9761
2023-05-05T09:14:47.854Z,966.9677
2023-05-05T09:15:50.464Z,966.9608
2023-05-05T09:16:53.061Z,966.9623
2023-05-05T09:17:55.673Z,966.9438
2023-05-05T09:18:58.204Z,966.9438
2023-05-05T09:20:00.857Z,966.9400
2023-05-05T09:21:03.381Z,966.9400
2023-05-05T09:22:06.001Z,966.9292
2023-05-05T09:23:08.579Z,966.9161
2023-05-05T09:24:11.176Z,966.9108
2023-05-05T09:25:13.730Z,966.9108
2023-05-05T09:26:16.360Z,966.8862
2023-05-05T09:27:19.473Z,966.8785
2023-05-05T09:28:21.533Z,966.8623
2023-05-05T09:29:24.073Z,966.8500
2023-05-05T09:30:26.687Z,966.8416
2023-05-05T09:31:29.314Z,966.8385
2023-05-05T09:32:31.844Z,966.8223
2023-05-05T09:33:34.409Z,966.8123
2023-05-05T09:34:37.029Z,966.8100
2023-05-05T09:35:39.684Z,966.7953
2023-05-05T09:36:42.264Z,966.8062
2023-05-05T09:37:44.760Z,966.8123
2023-05-05T09:38:47.357Z,966.7900
2023-05-05T09:39:49.926Z,966.7692
2023-05-05T09:40:52.527Z,966.7538
2023-05-05T09:41:55.093Z,966.7285
2023-05-05T09:42:57.698Z,966.7062
2023-05-05T09:44:00.257Z,966.7039
2023-05-05T09:45:02.868Z,966.6892
2023-05-05T09:46:05.459Z,966.6715
2023-05-05T09:47:18.098Z,966.6700
2023-05-05T09:48:10.621Z,966.6500
2023-05-05T09:49:13.219Z,966.6385
2023-05-05T09:50:15.777Z,966.6277
2023-05-05T09:51:18.574Z,966.6200
2023-05-05T09:52:20.949Z,966.6138
2023-05-05T09:53:23.559Z,966.6046
2023-05-05T09:54:26.129Z,966.5877
2023-05-05T09:55:28.720Z,966.5823
2023-05-05T09:56:31.284Z,966.5677
2023-05-05T09:57:33.902Z,966.5569
2023-05-05T09:58:36.568Z,966.5361
2023-05-05T09:59:39.074Z,966.5023
2023-05-05T10:00:41.629Z,966.4915
2023-05-05T10:01:44.267Z,966.4715
2023-05-05T10:02:46.834Z,966.4600
2023-05-05T10:03:49.411Z,966.4438
2023-05-05T10:04:52.075Z,966.4300
2023-05-05T10:05:54.591Z,966.4285
2023-05-05T10:06:57.266Z,966.4269
2023-05-05T10:07:59.746Z,966.4370
2023-05-05T10:09:02.311Z,966.4423
2023-05-05T10:10:05.133Z,966.4431
2023-05-05T10:11:07.493Z,966.4569
2023-05-05T10:12:10.102Z,966.4669
2023-05-05T10:13:12.755Z,966.4838
2023-05-05T10:14:15.255Z,966.4846
2023-05-05T10:15:17.823Z,966.4808
2023-05-05T10:16:20.494Z,966.4654
2023-05-05T10:17:22.984Z,966.4569
2023-05-05T10:18:25.730Z,966.4485
2023-05-05T10:19:28.137Z,966.4423
2023-05-05T10:20:30.750Z,966.4269
2023-05-05T10:21:33.304Z,966.4084
2023-05-05T10:22:35.978Z,966.3915
2023-05-05T10:23:38.468Z,966.3723
2023-05-05T10:24:41.074Z,966.3553
2023-05-05T10:26:39.582Z,966.3071
2023-05-05T10:27:42.560Z,966.3015
2023-05-05T10:28:44.567Z,966.2892
2023-05-05T10:29:47.121Z,966.2869
2023-05-05T10:30:49.727Z,966.2831
2023-05-05T10:31:52.317Z,966.2723
2023-05-05T10:33:07.961Z,966.2739
2023-05-05T10:33:57.480Z,966.2739
2023-05-05T10:35:00.058Z,966.2600
2023-05-05T10:36:03.681Z,966.2562
2023-05-05T10:37:07.281Z,966.2369
2023-05-05T10:38:07.849Z,966.1962
2023-05-05T10:39:12.445Z,966.1623
2023-05-05T10:40:12.945Z,966.1431
2023-05-05T10:41:15.557Z,966.1469
2023-05-05T10:42:18.693Z,966.1439
2023-05-05T10:43:20.710Z,966.1508
2023-05-05T10:44:23.261Z,966.1400
2023-05-05T10:45:27.996Z,966.1385
2023-05-05T10:46:28.475Z,966.1415
2023-05-05T10:47:33.084Z,966.1331
2023-05-05T10:48:33.626Z,966.1161
2023-05-05T10:49:36.204Z,966.1154
2023-05-05T10:50:38.771Z,966.1038
2023-05-05T10:51:41.462Z,966.0770
2023-05-05T10:52:43.959Z,966.0739
2023-05-05T10:53:46.667Z,966.0746
2023-05-05T10:54:49.117Z,966.0623
2023-05-05T10:55:51.719Z,966.0415
2023-05-05T10:56:54.289Z,966.0246
2023-05-05T10:57:56.894Z,965.9915
2023-05-05T10:59:00.773Z,965.9708
2023-05-05T11:00:02.070Z,965.9700
2023-05-05T11:01:04.669Z,965.9577
2023-05-05T11:02:07.238Z,965.9330
2023-05-05T11:03:09.818Z,965.9385
2023-05-05T11:04:12.416Z,965.9169
2023-05-05T11:05:15.007Z,965.8892
2023-05-05T11:06:17.545Z,965.8746
2023-05-05T11:07:20.299Z,965.8685
2023-05-05T11:08:22.721Z,965.8384
2023-05-05T11:09:25.398Z,965.8416
2023-05-05T11:10:27.880Z,965.8339
2023-05-05T11:11:30.444Z,965.8223
2023-05-05T11:12:33.109Z,965.7985
2023-05-05T11:13:35.619Z,965.8008
2023-05-05T11:14:38.221Z,965.7800
2023-05-05T11:15:40.792Z,965.7600
2023-05-05T11:16:43.438Z,965.7415
2023-05-05T11:17:46.030Z,965.7308
2023-05-05T11:18:48.577Z,965.7131
2023-05-05T11:19:51.140Z,965.6970
2023-05-05T11:20:53.741Z,965.7054
2023-05-05T11:21:56.303Z,965.7008
2023-05-05T11:22:58.922Z,965.7108
2023-05-05T11:24:01.476Z,965.6985
2023-05-05T11:25:04.191Z,965.6931
2023-05-05T11:26:06.643Z,965.6708
2023-05-05T11:27:09.245Z,965.6569
2023-05-05T11:28:11.842Z,965.6408
2023-05-05T11:29:14.831Z,965.6516
2023-05-05T11:30:16.960Z,965.6308
2023-05-05T11:31:19.946Z,965.6093
2023-05-05T11:32:22.129Z,965.5654
2023-05-05T11:33:24.746Z,965.5569
2023-05-05T11:34:27.305Z,965.5431
2023-05-05T11:35:29.901Z,965.5354
2023-05-05T11:36:32.460Z,965.5177
2023-05-05T11:37:35.061Z,965.5108
2023-05-05T11:38:37.623Z,965.4985
2023-05-05T11:39:40.222Z,965.4838
2023-05-05T11:40:42.853Z,965.4785
2023-05-05T11:41:45.385Z,965.4692
2023-05-05T11:42:47.935Z,965.4392
2023-05-05T11:43:50.542Z,965.4138
2023-05-05T11:44:53.105Z,965.4016
2023-05-05T11:45:55.754Z,965.3962
2023-05-05T11:47:01.068Z,965.3792
2023-05-05T11:48:00.911Z,965.3800
2023-05-05T11:49:03.432Z,965.4000
2023-05-05T11:50:06.170Z,965.4069
2023-05-05T11:51:08.577Z,965.4146
2023-05-05T11:52:11.181Z,965.4408
2023-05-05T11:53:13.723Z,965.4200
2023-05-05T11:54:16.333Z,965.4038
2023-05-05T11:55:18.892Z,965.3677
2023-05-05T11:56:21.559Z,965.3446
2023-05-05T11:57:24.044Z,965.3208
2023-05-05T11:58:26.650Z,965.3115
2023-05-05T11:59:29.475Z,965.3400
2023-05-05T12:00:31.815Z,965.3215
2023-05-05T12:01:34.377Z,965.3170
2023-05-05T12:02:37.034Z,965.3208
2023-05-05T12:03:39.609Z,965.3469
2023-05-05T12:04:42.171Z,965.3484
2023-05-05T12:05:44.671Z,965.3454
2023-05-05T12:06:47.281Z,965.3523
2023-05-05T12:07:49.831Z,965.3746
2023-05-05T12:08:52.446Z,965.3700
2023-05-05T12:09:55.005Z,965.3469
2023-05-05T12:10:57.592Z,965.3446
2023-05-05T12:12:00.218Z,965.3208
2023-05-05T12:13:02.837Z,965.3446
2023-05-05T12:14:05.306Z,965.3400
2023-05-05T12:15:07.934Z,965.3385
2023-05-05T12:16:10.503Z,965.3130
2023-05-05T12:17:13.061Z,965.3062
2023-05-05T12:18:15.616Z,965.2961
2023-05-05T12:19:18.228Z,965.2708
2023-05-05T12:20:20.827Z,965.2469
2023-05-05T12:21:23.383Z,965.2246
2023-05-05T12:22:25.950Z,965.1908
2023-05-05T12:23:28.540Z,965.1761
2023-05-05T12:24:31.094Z,965.1723
2023-05-05T12:25:33.709Z,965.1508
2023-05-05T12:26:36.248Z,965.1554
2023-05-05T12:27:39.021Z,965.1346
2023-05-05T12:28:41.411Z,965.1238
2023-05-05T12:29:44.012Z,965.1169
2023-05-05T12:30:46.615Z,965.1138
2023-05-05T12:31:49.186Z,965.0931
2023-05-05T12:32:51.753Z,965.0900
2023-05-05T12:33:54.331Z,965.0831